createdAt,value
2023-05-19T00:04:17.295Z,12.60
2023-05-19T00:09:19.636Z,12.68
2023-05-19T00:14:22.014Z,12.53
2023-05-19T00:19:25.570Z,12.56
2023-05-19T00:24:27.899Z,12.50
2023-05-19T00:29:30.053Z,12.54
2023-05-19T00:34:32.237Z,12.51
2023-05-19T00:39:34.373Z,12.49
2023-05-19T00:44:41.441Z,12.50
2023-05-19T00:49:43.557Z,12.37
2023-05-19T00:54:46.417Z,12.31
2023-05-19T00:59:48.949Z,12.23
2023-05-19T01:04:51.803Z,12.17
2023-05-19T01:09:54.178Z,12.15
2023-05-19T01:14:58.715Z,12.15
2023-05-19T01:20:11.068Z,12.15
2023-05-19T01:25:29.781Z,12.07
2023-05-19T01:30:48.653Z,12.11
2023-05-19T01:35:51.850Z,12.06
2023-05-19T01:40:55.990Z,12.12
2023-05-19T01:45:59.002Z,12.11
2023-05-19T01:51:01.463Z,11.98
2023-05-19T01:56:04.154Z,12.04
2023-05-19T02:01:47.496Z,12.00
2023-05-19T02:07:03.614Z,12.03
2023-05-19T02:12:23.335Z,11.94
2023-05-19T02:17:29.406Z,12.00
2023-05-19T02:22:31.893Z,11.97
2023-05-19T02:27:35.105Z,12.06
2023-05-19T02:32:37.703Z,12.03
2023-05-19T02:37:39.985Z,12.12
2023-05-19T02:42:42.072Z,12.14
2023-05-19T02:47:44.257Z,12.00
2023-05-19T02:52:46.418Z,12.11
2023-05-19T02:57:48.509Z,12.07
2023-05-19T03:02:53.085Z,11.94
2023-05-19T03:07:55.255Z,11.89
2023-05-19T03:12:57.357Z,11.97
2023-05-19T03:17:59.493Z,11.97
2023-05-19T03:23:01.612Z,11.91
2023-05-19T03:28:03.932Z,11.94
2023-05-19T03:33:06.234Z,12.09
2023-05-19T03:38:08.410Z,12.16
2023-05-19T03:43:10.745Z,12.14
2023-05-19T03:48:12.968Z,12.15
2023-05-19T03:53:15.065Z,12.29
2023-05-19T03:58:17.202Z,12.42
2023-05-19T04:03:19.472Z,12.46
2023-05-19T04:08:21.703Z,12.54
2023-05-19T04:13:23.940Z,12.56
2023-05-19T04:18:28.785Z,12.60
2023-05-19T04:23:31.752Z,12.68
2023-05-19T04:28:38.562Z,12.77
2023-05-19T04:33:41.104Z,12.84
2023-05-19T04:38:43.497Z,12.95
2023-05-19T04:43:45.783Z,13.01
2023-05-19T04:48:47.870Z,13.05
2023-05-19T04:53:50.027Z,13.22
2023-05-19T04:58:53.752Z,13.29
2023-05-19T05:03:56.161Z,13.50
2023-05-19T05:08:58.589Z,13.64
2023-05-19T05:14:01.109Z,13.80
2023-05-19T05:19:03.861Z,13.92
2023-05-19T05:24:06.544Z,14.00
2023-05-19T05:29:09.856Z,14.11
2023-05-19T05:34:12.050Z,14.23
2023-05-19T05:39:14.197Z,14.39
2023-05-19T05:44:16.287Z,14.56
2023-05-19T05:49:18.731Z,14.70
2023-05-19T05:54:22.438Z,14.70
2023-05-19T05:59:25.059Z,14.81
2023-05-19T06:04:27.237Z,14.94
2023-05-19T06:09:30.386Z,14.92
2023-05-19T06:14:32.574Z,14.83
2023-05-19T06:19:34.694Z,14.79
2023-05-19T06:24:39.459Z,14.91
2023-05-19T06:29:41.867Z,15.09
2023-05-19T06:34:44.014Z,15.19
2023-05-19T06:39:47.295Z,15.27
2023-05-19T06:44:50.303Z,15.24
2023-05-19T06:49:55.573Z,15.22
2023-05-19T06:54:57.920Z,15.52
2023-05-19T07:00:00.093Z,15.96
2023-05-19T07:05:03.183Z,15.98
2023-05-19T07:10:05.944Z,16.26
2023-05-19T07:15:08.353Z,16.75
2023-05-19T07:20:10.859Z,16.46
2023-05-19T07:25:12.946Z,16.17
2023-05-19T07:30:15.104Z,16.42
2023-05-19T07:35:17.264Z,16.67
2023-05-19T07:40:19.523Z,16.77
2023-05-19T07:45:21.844Z,16.87
2023-05-19T07:50:24.102Z,17.26
2023-05-19T07:55:26.379Z,17.47
2023-05-19T08:00:28.543Z,17.86
2023-05-19T08:05:30.814Z,18.22
2023-05-19T08:10:33.226Z,18.51
2023-05-19T08:15:35.810Z,18.71
2023-05-19T08:20:37.976Z,18.96
2023-05-19T08:25:40.721Z,19.16
2023-05-19T08:30:42.907Z,19.60
2023-05-19T08:35:45.088Z,19.83
2023-05-19T08:40:48.428Z,19.78
2023-05-19T08:45:50.656Z,20.05
2023-05-19T08:51:03.310Z,20.10
2023-05-19T08:56:11.283Z,20.31
2023-05-19T09:01:16.914Z,20.47
2023-05-19T09:06:19.688Z,20.71
2023-05-19T09:11:22.752Z,20.96
2023-05-19T09:16:27.650Z,20.68
2023-05-19T09:21:32.203Z,20.55
2023-05-19T09:26:42.287Z,20.58
2023-05-19T09:31:55.989Z,20.12
2023-05-19T09:36:59.829Z,20.35
2023-05-19T09:42:04.966Z,20.22
2023-05-19T09:47:09.779Z,20.31
2023-05-19T09:52:16.292Z,20.45
2023-05-19T09:57:18.560Z,20.27
2023-05-19T10:02:21.831Z,20.54
2023-05-19T10:07:25.293Z,21.82
2023-05-19T10:12:28.088Z,22.47
2023-05-19T10:17:30.928Z,22.79
2023-05-19T10:22:33.797Z,22.69
2023-05-19T10:27:40.629Z,22.03
2023-05-19T10:32:46.744Z,21.67
2023-05-19T10:37:57.640Z,21.33
2023-05-19T10:43:02.850Z,21.66
2023-05-19T10:48:05.220Z,22.40
2023-05-19T10:53:15.085Z,22.11
2023-05-19T10:58:36.412Z,21.74
2023-05-19T11:03:49.130Z,21.52
2023-05-19T11:08:55.545Z,22.19
2023-05-19T11:14:00.425Z,22.84
2023-05-19T11:19:02.618Z,22.99
2023-05-19T11:24:08.886Z,23.24
2023-05-19T11:29:11.882Z,23.08
2023-05-19T11:34:14.574Z,22.50
2023-05-19T11:39:16.993Z,22.32
2023-05-19T11:44:19.129Z,23.01
2023-05-19T11:49:21.332Z,23.29
2023-05-19T11:54:31.611Z,23.34
2023-05-19T11:59:36.482Z,23.73
2023-05-19T12:04:38.666Z,23.86
2023-05-19T12:09:41.322Z,24.14
2023-05-19T12:14:43.864Z,24.10
2023-05-19T12:19:50.185Z,24.31
2023-05-19T12:24:52.791Z,24.01
2023-05-19T12:29:59.576Z,23.67
2023-05-19T12:35:07.080Z,24.30
2023-05-19T12:40:09.959Z,24.39
2023-05-19T12:45:12.480Z,24.68
2023-05-19T12:50:14.732Z,24.52
2023-05-19T12:55:16.884Z,24.58
2023-05-19T13:00:21.128Z,24.59
2023-05-19T13:05:24.001Z,24.48
2023-05-19T13:10:29.706Z,25.28
2023-05-19T13:15:37.997Z,25.90
2023-05-19T13:20:42.248Z,26.20
2023-05-19T13:25:44.401Z,26.74
2023-05-19T13:30:46.662Z,27.13
2023-05-19T13:35:49.250Z,26.86
2023-05-19T13:40:52.799Z,25.57
2023-05-19T13:45:54.934Z,26.38
2023-05-19T13:50:57.870Z,26.06
2023-05-19T13:56:01.228Z,26.22
2023-05-19T14:01:03.437Z,26.48
2023-05-19T14:06:05.633Z,25.83
2023-05-19T14:11:07.872Z,26.68
2023-05-19T14:16:10.299Z,27.11
2023-05-19T14:21:12.510Z,26.37
2023-05-19T14:26:14.653Z,26.86
2023-05-19T14:31:16.967Z,26.66
2023-05-19T14:36:19.162Z,26.63
2023-05-19T14:41:21.884Z,26.05
2023-05-19T14:46:24.053Z,26.44
2023-05-19T14:51:26.203Z,26.90
2023-05-19T14:56:28.328Z,27.38
2023-05-19T15:01:30.918Z,27.34
2023-05-19T15:06:33.134Z,27.20
2023-05-19T15:11:35.866Z,27.25
2023-05-19T15:16:38.048Z,27.25
2023-05-19T15:21:40.215Z,26.82
2023-05-19T15:26:42.424Z,25.90
2023-05-19T15:31:44.640Z,25.47
2023-05-19T15:36:47.500Z,24.82
2023-05-19T15:41:52.672Z,24.52
2023-05-19T15:46:54.858Z,24.27
2023-05-19T15:51:57.026Z,23.85
2023-05-19T15:56:59.194Z,23.77
2023-05-19T16:02:01.594Z,23.55
2023-05-19T16:07:03.895Z,23.43
2023-05-19T16:12:06.490Z,23.41
2023-05-19T16:17:11.568Z,23.17
2023-05-19T16:22:13.798Z,23.11
2023-05-19T16:27:15.959Z,22.99
2023-05-19T16:32:18.133Z,22.93
2023-05-19T16:37:20.431Z,22.86
2023-05-19T16:42:23.194Z,22.74
2023-05-19T16:47:27.803Z,22.64
2023-05-19T16:52:30.686Z,22.49
2023-05-19T16:57:32.872Z,22.34
2023-05-19T17:02:35.130Z,22.18
2023-05-19T17:07:37.455Z,22.04
2023-05-19T17:12:40.035Z,21.92
2023-05-19T17:17:42.215Z,21.73
2023-05-19T17:22:44.354Z,21.57
2023-05-19T17:27:46.460Z,21.40
2023-05-19T17:32:48.667Z,21.24
2023-05-19T17:37:50.939Z,21.07
2023-05-19T17:42:53.099Z,20.85
2023-05-19T17:47:55.304Z,20.66
2023-05-19T17:52:57.647Z,20.49
2023-05-19T17:58:00.182Z,20.31
2023-05-19T18:03:04.609Z,20.22
2023-05-19T18:08:09.380Z,20.03
2023-05-19T18:13:14.641Z,19.77
2023-05-19T18:18:16.825Z,19.57
2023-05-19T18:23:20.407Z,19.37
2023-05-19T18:28:23.859Z,19.18
2023-05-19T18:33:27.883Z,18.90
2023-05-19T18:38:30.742Z,18.75
2023-05-19T18:43:33.173Z,18.58
2023-05-19T18:48:35.354Z,18.34
2023-05-19T18:53:37.579Z,18.33
2023-05-19T18:58:39.727Z,18.24
2023-05-19T19:03:43.660Z,18.05
2023-05-19T19:08:45.868Z,18.00
2023-05-19T19:13:51.198Z,17.97
2023-05-19T19:18:53.705Z,17.90
2023-05-19T19:23:57.055Z,17.89
2023-05-19T19:28:59.245Z,17.80
2023-05-19T19:34:03.923Z,17.82
2023-05-19T19:39:06.193Z,17.66
2023-05-19T19:44:08.466Z,17.71
2023-05-19T19:49:10.839Z,17.50
2023-05-19T19:54:12.972Z,17.60
2023-05-19T19:59:16.109Z,17.49
2023-05-19T20:04:18.387Z,17.51
2023-05-19T20:09:20.944Z,17.45
2023-05-19T20:14:23.058Z,17.34
2023-05-19T20:19:26.557Z,17.31
2023-05-19T20:24:28.813Z,17.20
2023-05-19T20:29:30.930Z,17.28
2023-05-19T20:34:33.162Z,17.27
2023-05-19T20:39:35.420Z,17.33
2023-05-19T20:44:37.644Z,17.32
2023-05-19T20:49:39.810Z,17.30
2023-05-19T20:54:42.320Z,17.28
2023-05-19T20:59:44.491Z,17.21
2023-05-19T21:04:46.698Z,17.15
2023-05-19T21:09:50.537Z,17.02
2023-05-19T21:14:52.640Z,16.93
2023-05-19T21:19:58.305Z,16.93
2023-05-19T21:25:00.565Z,16.76
2023-05-19T21:30:02.843Z,16.72
2023-05-19T21:35:06.208Z,16.59
2023-05-19T21:40:09.784Z,16.54
2023-05-19T21:45:11.959Z,16.49
2023-05-19T21:50:17.401Z,16.39
2023-05-19T21:55:22.274Z,16.23
2023-05-19T22:00:25.694Z,16.17
2023-05-19T22:05:30.343Z,16.08
2023-05-19T22:10:32.772Z,16.03
2023-05-19T22:15:35.194Z,15.97
2023-05-19T22:20:38.273Z,15.94
2023-05-19T22:25:40.390Z,15.76
2023-05-19T22:30:42.782Z,15.66
2023-05-19T22:35:45.000Z,15.71
2023-05-19T22:40:47.212Z,15.66
2023-05-19T22:45:49.475Z,15.56
2023-05-19T22:50:51.753Z,15.53
2023-05-19T22:55:53.930Z,15.53
2023-05-19T23:00:56.217Z,15.60
2023-05-19T23:05:58.594Z,15.54
2023-05-19T23:11:02.251Z,15.45
2023-05-19T23:16:06.652Z,15.41
2023-05-19T23:21:08.785Z,15.43
2023-05-19T23:26:13.298Z,15.32
2023-05-19T23:31:15.583Z,15.28
2023-05-19T23:36:18.232Z,15.24
2023-05-19T23:41:21.087Z,15.10
2023-05-19T23:46:23.349Z,15.01
2023-05-19T23:51:25.741Z,14.98
2023-05-19T23:56:27.905Z,14.96
